Terminal Aerodrome Forecast
Issued by NWS Quad Cities IA IL

Home | Current Version | Previous Version | Text Only | Print | Product List | Glossary On
Versions: 1 2 3 4 5 6 7 8 9 10 11 12 13 14 15 16 17 18 19 20 21 22
000
FTUS43 KDVN 291537 AAC
TAFDBQ
TAF AMD
KDBQ 291537Z 2916/3012 04005KT 6SM BR OVC007
     FM291800 04007KT P6SM BKN015
     FM292100 03006KT P6SM BKN025
     FM292300 07006KT P6SM SCT040
     FM300800 07003KT 2SM BR FEW100=

USA.gov is the U.S. government's official web portal to all federal, state and local government web resources and services.